Wetterdaten: Freitag, 03.09.2010
Datum Zeit Temp. A. Feuchte A. Luftdruck Regen Wind Richtung Richtung Sonnenschein UV Solar Windben
03.09.2010 00:00 13,9 C 89 % 1019,5 hPa 0,0 mm 0,0 km/h (0 Bft) W 270 0 min 0 UV-I 0 W/m 1,6 km/h (1 Bft)
03.09.2010 00:10 13,9 C 89 % 1019,5 hPa 0,0 mm 0,0 km/h (0 Bft) W 270 0 min 0 UV-I 0 W/m 3,2 km/h (1 Bft)
03.09.2010 00:20 13,8 C 89 % 1019,4 hPa 0,0 mm 0,0 km/h (0 Bft) N 0 0 min 0 UV-I 0 W/m 0,0 km/h (0 Bft)
03.09.2010 00:30 13,8 C 89 % 1019,5 hPa 0,0 mm 0,0 km/h (0 Bft) N 0 0 min 0 UV-I 0 W/m 0,0 km/h (0 Bft)
03.09.2010 00:40 13,8 C 89 % 1019,5 hPa 0,0 mm 0,0 km/h (0 Bft) W 270 0 min 0 UV-I 0 W/m 1,6 km/h (1 Bft)
03.09.2010 00:50 13,8 C 89 % 1019,4 hPa 0,0 mm 0,0 km/h (0 Bft) N 0 0 min 0 UV-I 0 W/m 0,0 km/h (0 Bft)
03.09.2010 01:00 13,8 C 89 % 1019,4 hPa 0,0 mm 0,0 km/h (0 Bft) W 270 0 min 0 UV-I 0 W/m 3,2 km/h (1 Bft)
03.09.2010 01:10 13,8 C 89 % 1019,5 hPa 0,0 mm 0,0 km/h (0 Bft) W 270 0 min 0 UV-I 0 W/m 1,6 km/h (1 Bft)
03.09.2010 01:20 13,8 C 89 % 1019,5 hPa 0,0 mm 0,0 km/h (0 Bft) N 0 0 min 0 UV-I 0 W/m 0,0 km/h (0 Bft)
03.09.2010 01:30 13,8 C 89 % 1019,5 hPa 0,0 mm 0,0 km/h (0 Bft) N 0 0 min 0 UV-I 0 W/m 0,0 km/h (0 Bft)
03.09.2010 01:40 13,8 C 89 % 1019,5 hPa 0,0 mm 0,0 km/h (0 Bft) N 0 0 min 0 UV-I 0 W/m 0,0 km/h (0 Bft)
03.09.2010 01:50 13,8 C 89 % 1019,5 hPa 0,0 mm 0,0 km/h (0 Bft) N 0 0 min 0 UV-I 0 W/m 0,0 km/h (0 Bft)
03.09.2010 02:00 13,8 C 89 % 1019,6 hPa 0,0 mm 0,0 km/h (0 Bft) N 0 0 min 0 UV-I 0 W/m 0,0 km/h (0 Bft)
03.09.2010 02:10 13,8 C 89 % 1019,4 hPa 0,0 mm 0,0 km/h (0 Bft) N 0 0 min 0 UV-I 0 W/m 0,0 km/h (0 Bft)
03.09.2010 02:20 13,8 C 89 % 1019,3 hPa 0,0 mm 0,0 km/h (0 Bft) N 0 0 min 0 UV-I 0 W/m 0,0 km/h (0 Bft)
03.09.2010 02:30 13,8 C 89 % 1019,3 hPa 0,0 mm 0,0 km/h (0 Bft) N 0 0 min 0 UV-I 0 W/m 0,0 km/h (0 Bft)
03.09.2010 02:40 13,7 C 89 % 1019,3 hPa 0,0 mm 0,0 km/h (0 Bft) W 270 0 min 0 UV-I 0 W/m 1,6 km/h (1 Bft)
03.09.2010 02:50 13,7 C 90 % 1019,4 hPa 0,0 mm 0,0 km/h (0 Bft) W 270 0 min 0 UV-I 0 W/m 1,6 km/h (1 Bft)
03.09.2010 03:00 13,6 C 90 % 1019,4 hPa 0,0 mm 0,0 km/h (0 Bft) N 0 0 min 0 UV-I 0 W/m 0,0 km/h (0 Bft)
03.09.2010 03:10 13,5 C 90 % 1019,4 hPa 0,0 mm 0,0 km/h (0 Bft) N 0 0 min 0 UV-I 0 W/m 0,0 km/h (0 Bft)
03.09.2010 03:20 13,4 C 90 % 1019,5 hPa 0,0 mm 0,0 km/h (0 Bft) N 0 0 min 0 UV-I 0 W/m 0,0 km/h (0 Bft)
03.09.2010 03:30 13,4 C 90 % 1019,4 hPa 0,0 mm 0,0 km/h (0 Bft) N 0 0 min 0 UV-I 0 W/m 0,0 km/h (0 Bft)
03.09.2010 03:40 13,4 C 90 % 1019,6 hPa 0,0 mm 0,0 km/h (0 Bft) N 0 0 min 0 UV-I 0 W/m 0,0 km/h (0 Bft)
03.09.2010 03:50 13,4 C 90 % 1019,6 hPa 0,0 mm 0,0 km/h (0 Bft) N 0 0 min 0 UV-I 0 W/m 0,0 km/h (0 Bft)
03.09.2010 04:00 13,4 C 90 % 1019,5 hPa 0,0 mm 0,0 km/h (0 Bft) N 0 0 min 0 UV-I 0 W/m 0,0 km/h (0 Bft)
03.09.2010 04:10 13,4 C 90 % 1019,3 hPa 0,0 mm 0,0 km/h (0 Bft) N 0 0 min 0 UV-I 0 W/m 0,0 km/h (0 Bft)
03.09.2010 04:20 13,4 C 90 % 1019,4 hPa 0,0 mm 0,0 km/h (0 Bft) N 0 0 min 0 UV-I 0 W/m 0,0 km/h (0 Bft)
03.09.2010 04:30 13,4 C 90 % 1019,4 hPa 0,0 mm 0,0 km/h (0 Bft) N 0 0 min 0 UV-I 0 W/m 0,0 km/h (0 Bft)
03.09.2010 04:40 13,4 C 90 % 1019,5 hPa 0,0 mm 0,0 km/h (0 Bft) N 0 0 min 0 UV-I 0 W/m 0,0 km/h (0 Bft)
03.09.2010 04:50 13,3 C 91 % 1019,6 hPa 0,0 mm 0,0 km/h (0 Bft) N 0 0 min 0 UV-I 0 W/m 0,0 km/h (0 Bft)
03.09.2010 05:00 13,3 C 91 % 1019,5 hPa 0,0 mm 0,0 km/h (0 Bft) N 0 0 min 0 UV-I 0 W/m 0,0 km/h (0 Bft)
03.09.2010 05:10 13,3 C 91 % 1019,6 hPa 0,0 mm 0,0 km/h (0 Bft) W-NW 292 0 min 0 UV-I 0 W/m 4,8 km/h (1 Bft)
03.09.2010 05:20 13,2 C 91 % 1019,5 hPa 0,0 mm 0,0 km/h (0 Bft) N 0 0 min 0 UV-I 0 W/m 0,0 km/h (0 Bft)
03.09.2010 05:30 13,2 C 91 % 1019,6 hPa 0,0 mm 0,0 km/h (0 Bft) N 0 0 min 0 UV-I 0 W/m 0,0 km/h (0 Bft)
03.09.2010 05:40 13,1 C 91 % 1019,6 hPa 0,0 mm 0,0 km/h (0 Bft) N 0 0 min 0 UV-I 0 W/m 0,0 km/h (0 Bft)
03.09.2010 05:50 12,9 C 91 % 1019,5 hPa 0,0 mm 0,0 km/h (0 Bft) N 0 0 min 0 UV-I 0 W/m 0,0 km/h (0 Bft)
03.09.2010 06:00 12,9 C 91 % 1019,6 hPa 0,0 mm 0,0 km/h (0 Bft) N 0 0 min 0 UV-I 0 W/m 0,0 km/h (0 Bft)
03.09.2010 06:10 12,8 C 91 % 1019,5 hPa 0,0 mm 0,0 km/h (0 Bft) N 0 0 min 0 UV-I 0 W/m 0,0 km/h (0 Bft)
03.09.2010 06:20 12,8 C 91 % 1019,6 hPa 0,0 mm 0,0 km/h (0 Bft) N 0 0 min 0 UV-I 0 W/m 0,0 km/h (0 Bft)
03.09.2010 06:30 12,8 C 91 % 1019,6 hPa 0,0 mm 0,0 km/h (0 Bft) N 0 0 min 0 UV-I 0 W/m 0,0 km/h (0 Bft)
03.09.2010 06:40 12,8 C 91 % 1019,7 hPa 0,0 mm 0,0 km/h (0 Bft) N 0 0 min 0 UV-I 0 W/m 0,0 km/h (0 Bft)
03.09.2010 06:50 12,7 C 91 % 1019,8 hPa 0,0 mm 0,0 km/h (0 Bft) N 0 0 min 0 UV-I 0 W/m 0,0 km/h (0 Bft)
03.09.2010 07:00 12,7 C 91 % 1019,9 hPa 0,0 mm 0,0 km/h (0 Bft) N 0 0 min 0 UV-I 0 W/m 0,0 km/h (0 Bft)
03.09.2010 07:10 12,7 C 91 % 1020,0 hPa 0,0 mm 0,0 km/h (0 Bft) N 0 0 min 0 UV-I 0 W/m 0,0 km/h (0 Bft)
03.09.2010 07:20 12,7 C 91 % 1020,1 hPa 0,0 mm 0,0 km/h (0 Bft) N 0 0 min 0 UV-I 9 W/m 0,0 km/h (0 Bft)
03.09.2010 07:30 12,7 C 91 % 1020,1 hPa 0,0 mm 0,0 km/h (0 Bft) N 0 0 min 0 UV-I 16 W/m 0,0 km/h (0 Bft)
03.09.2010 07:40 12,7 C 91 % 1020,0 hPa 0,0 mm 0,0 km/h (0 Bft) N 0 0 min 0 UV-I 18 W/m 0,0 km/h (0 Bft)
03.09.2010 07:50 12,7 C 92 % 1020,1 hPa 0,0 mm 0,0 km/h (0 Bft) N 0 0 min 0 UV-I 14 W/m 0,0 km/h (0 Bft)
03.09.2010 08:00 12,7 C 92 % 1020,1 hPa 0,0 mm 0,0 km/h (0 Bft) W-NW 286 0 min 0 UV-I 21 W/m 0,0 km/h (0 Bft)
03.09.2010 08:10 12,7 C 91 % 1020,3 hPa 0,0 mm 0,0 km/h (0 Bft) N 0 0 min 0 UV-I 47 W/m 0,0 km/h (0 Bft)
03.09.2010 08:20 12,7 C 92 % 1020,3 hPa 0,0 mm 0,0 km/h (0 Bft) N 0 0 min 0 UV-I 62 W/m 0,0 km/h (0 Bft)
03.09.2010 08:30 12,8 C 92 % 1020,4 hPa 0,0 mm 0,0 km/h (0 Bft) N 0 0 min 0 UV-I 62 W/m 0,0 km/h (0 Bft)
03.09.2010 08:40 12,8 C 92 % 1020,5 hPa 0,0 mm 0,0 km/h (0 Bft) N 0 0 min 0 UV-I 33 W/m 0,0 km/h (0 Bft)
03.09.2010 08:50 12,9 C 92 % 1020,3 hPa 0,0 mm 0,0 km/h (0 Bft) N 0 0 min 0 UV-I 47 W/m 0,0 km/h (0 Bft)
03.09.2010 09:00 12,9 C 92 % 1020,5 hPa 0,0 mm 0,0 km/h (0 Bft) N 0 0 min 0 UV-I 54 W/m 0,0 km/h (0 Bft)
03.09.2010 09:10 12,9 C 92 % 1020,6 hPa 0,0 mm 0,0 km/h (0 Bft) N 0 0 min 0 UV-I 62 W/m 0,0 km/h (0 Bft)
03.09.2010 09:20 13,0 C 92 % 1020,6 hPa 0,0 mm 0,0 km/h (0 Bft) N 0 0 min 1 UV-I 67 W/m 0,0 km/h (0 Bft)
03.09.2010 09:30 13,1 C 92 % 1020,7 hPa 0,0 mm 0,0 km/h (0 Bft) N 0 0 min 1 UV-I 98 W/m 0,0 km/h (0 Bft)
03.09.2010 09:40 13,2 C 92 % 1020,7 hPa 0,0 mm 0,0 km/h (0 Bft) N-NO 22 0 min 1 UV-I 132 W/m 1,6 km/h (1 Bft)
03.09.2010 09:50 13,3 C 92 % 1020,7 hPa 0,0 mm 0,0 km/h (0 Bft) N 0 0 min 1 UV-I 100 W/m 0,0 km/h (0 Bft)
03.09.2010 10:00 13,4 C 92 % 1020,7 hPa 0,0 mm 0,0 km/h (0 Bft) N 0 0 min 1 UV-I 93 W/m 0,0 km/h (0 Bft)
03.09.2010 10:10 13,5 C 92 % 1020,9 hPa 0,0 mm 0,0 km/h (0 Bft) N 0 0 min 1 UV-I 127 W/m 0,0 km/h (0 Bft)
03.09.2010 10:20 13,6 C 92 % 1020,9 hPa 0,0 mm 0,0 km/h (0 Bft) N 0 0 min 1 UV-I 146 W/m 0,0 km/h (0 Bft)
03.09.2010 10:30 13,7 C 92 % 1020,8 hPa 0,0 mm 0,0 km/h (0 Bft) N 0 0 min 1 UV-I 197 W/m 0,0 km/h (0 Bft)
03.09.2010 10:40 13,9 C 88 % 1020,9 hPa 0,0 mm 0,0 km/h (0 Bft) N 0 0 min 2 UV-I 239 W/m 0,0 km/h (0 Bft)
03.09.2010 10:50 14,7 C 86 % 1020,9 hPa 0,0 mm 0,0 km/h (0 Bft) N 0 10 min 3 UV-I 504 W/m 0,0 km/h (0 Bft)
03.09.2010 11:00 15,2 C 82 % 1020,9 hPa 0,0 mm 0,0 km/h (0 Bft) N 0 10 min 3 UV-I 385 W/m 0,0 km/h (0 Bft)
03.09.2010 11:10 15,3 C 81 % 1020,8 hPa 0,0 mm 0,0 km/h (0 Bft) S-SO 157 10 min 3 UV-I 452 W/m 4,8 km/h (1 Bft)
03.09.2010 11:20 15,2 C 79 % 1020,8 hPa 0,0 mm 0,0 km/h (0 Bft) N-NO 22 10 min 3 UV-I 589 W/m 3,2 km/h (1 Bft)
03.09.2010 11:30 15,7 C 79 % 1020,8 hPa 0,0 mm 0,0 km/h (0 Bft) N 0 10 min 3 UV-I 353 W/m 0,0 km/h (0 Bft)
03.09.2010 11:40 15,9 C 77 % 1020,7 hPa 0,0 mm 0,0 km/h (0 Bft) N 0 10 min 4 UV-I 492 W/m 0,0 km/h (0 Bft)
03.09.2010 11:50 16,2 C 78 % 1020,7 hPa 0,0 mm 0,0 km/h (0 Bft) N-NO 22 10 min 4 UV-I 647 W/m 3,2 km/h (1 Bft)
03.09.2010 12:00 16,5 C 73 % 1020,6 hPa 0,0 mm 0,0 km/h (0 Bft) N-NO 22 10 min 4 UV-I 670 W/m 4,8 km/h (1 Bft)
03.09.2010 12:10 16,3 C 75 % 1020,5 hPa 0,0 mm 0,0 km/h (0 Bft) N-NO 22 0 min 4 UV-I 320 W/m 6,4 km/h (2 Bft)
03.09.2010 12:20 16,4 C 73 % 1020,5 hPa 0,0 mm 0,0 km/h (0 Bft) NW 315 10 min 5 UV-I 621 W/m 3,2 km/h (1 Bft)
03.09.2010 12:30 17,0 C 71 % 1020,6 hPa 0,0 mm 0,0 km/h (0 Bft) N 0 10 min 5 UV-I 647 W/m 0,0 km/h (0 Bft)
03.09.2010 12:40 16,9 C 71 % 1020,5 hPa 0,0 mm 0,0 km/h (0 Bft) N 0 10 min 5 UV-I 605 W/m 0,0 km/h (0 Bft)
03.09.2010 12:50 17,4 C 68 % 1020,4 hPa 0,0 mm 0,0 km/h (0 Bft) NW 315 10 min 5 UV-I 684 W/m 3,2 km/h (1 Bft)
03.09.2010 13:00 17,6 C 72 % 1020,4 hPa 0,0 mm 0,0 km/h (0 Bft) NW 315 10 min 5 UV-I 619 W/m 4,8 km/h (1 Bft)
03.09.2010 13:10 17,2 C 71 % 1020,4 hPa 0,0 mm 1,6 km/h (1 Bft) NW 315 10 min 4 UV-I 417 W/m 9,7 km/h (2 Bft)
03.09.2010 13:20 17,2 C 68 % 1020,3 hPa 0,0 mm 1,6 km/h (1 Bft) W 270 10 min 5 UV-I 735 W/m 9,7 km/h (2 Bft)
03.09.2010 13:30 17,7 C 67 % 1020,2 hPa 0,0 mm 1,6 km/h (1 Bft) W 270 10 min 5 UV-I 756 W/m 4,8 km/h (1 Bft)
03.09.2010 13:40 18,1 C 66 % 1020,2 hPa 0,0 mm 3,2 km/h (1 Bft) W 270 10 min 5 UV-I 721 W/m 9,7 km/h (2 Bft)
03.09.2010 13:50 18,3 C 66 % 1020,1 hPa 0,0 mm 3,2 km/h (1 Bft) W 270 10 min 5 UV-I 629 W/m 8,0 km/h (2 Bft)
03.09.2010 14:00 18,7 C 65 % 1020,1 hPa 0,0 mm 1,6 km/h (1 Bft) W 270 10 min 4 UV-I 758 W/m 6,4 km/h (2 Bft)
03.09.2010 14:10 18,9 C 65 % 1020,0 hPa 0,0 mm 1,6 km/h (1 Bft) W 270 10 min 4 UV-I 624 W/m 8,0 km/h (2 Bft)
03.09.2010 14:20 18,8 C 66 % 1019,9 hPa 0,0 mm 1,6 km/h (1 Bft) W-NW 292 10 min 3 UV-I 638 W/m 8,0 km/h (2 Bft)
03.09.2010 14:30 18,5 C 67 % 1019,9 hPa 0,0 mm 1,6 km/h (1 Bft) W-NW 292 0 min 3 UV-I 292 W/m 8,0 km/h (2 Bft)
03.09.2010 14:40 18,6 C 66 % 1019,7 hPa 0,0 mm 1,6 km/h (1 Bft) W-NW 292 10 min 4 UV-I 455 W/m 6,4 km/h (2 Bft)
03.09.2010 14:50 19,2 C 65 % 1019,6 hPa 0,0 mm 1,6 km/h (1 Bft) W-NW 292 10 min 4 UV-I 663 W/m 6,4 km/h (2 Bft)
03.09.2010 15:00 18,9 C 67 % 1019,6 hPa 0,0 mm 1,6 km/h (1 Bft) N-NW 337 0 min 2 UV-I 255 W/m 9,7 km/h (2 Bft)
03.09.2010 15:10 18,2 C 68 % 1019,5 hPa 0,0 mm 1,6 km/h (1 Bft) N-NW 337 0 min 3 UV-I 297 W/m 8,0 km/h (2 Bft)
03.09.2010 15:20 18,4 C 66 % 1019,5 hPa 0,0 mm 1,6 km/h (1 Bft) N-NW 337 10 min 3 UV-I 631 W/m 6,4 km/h (2 Bft)
03.09.2010 15:30 19,0 C 62 % 1019,4 hPa 0,0 mm 1,6 km/h (1 Bft) N-NW 337 10 min 3 UV-I 659 W/m 6,4 km/h (2 Bft)
03.09.2010 15:40 18,9 C 60 % 1019,3 hPa 0,0 mm 0,0 km/h (0 Bft) N-NW 337 10 min 3 UV-I 584 W/m 4,8 km/h (1 Bft)
03.09.2010 15:50 19,3 C 62 % 1019,1 hPa 0,0 mm 1,6 km/h (1 Bft) N-NW 337 10 min 3 UV-I 675 W/m 8,0 km/h (2 Bft)
03.09.2010 16:00 20,1 C 64 % 1019,0 hPa 0,0 mm 2,7 km/h (1 Bft) N 9 10 min 2 UV-I 447 W/m 8,0 km/h (2 Bft)
03.09.2010 16:10 19,8 C 64 % 1019,0 hPa 0,0 mm 3,2 km/h (1 Bft) N 360 10 min 2 UV-I 417 W/m 9,7 km/h (2 Bft)
03.09.2010 16:20 19,2 C 63 % 1019,0 hPa 0,0 mm 1,6 km/h (1 Bft) N 360 10 min 2 UV-I 529 W/m 8,0 km/h (2 Bft)
03.09.2010 16:30 19,1 C 66 % 1018,9 hPa 0,0 mm 1,6 km/h (1 Bft) N 360 10 min 2 UV-I 415 W/m 6,4 km/h (2 Bft)
03.09.2010 16:40 19,4 C 61 % 1019,0 hPa 0,0 mm 1,6 km/h (1 Bft) N 360 10 min 2 UV-I 608 W/m 6,4 km/h (2 Bft)
03.09.2010 16:50 19,3 C 66 % 1019,0 hPa 0,0 mm 3,2 km/h (1 Bft) N 360 0 min 1 UV-I 227 W/m 11,3 km/h (2 Bft)
03.09.2010 17:00 18,7 C 67 % 1019,0 hPa 0,0 mm 3,2 km/h (1 Bft) N 360 10 min 1 UV-I 455 W/m 11,3 km/h (2 Bft)
03.09.2010 17:10 18,8 C 66 % 1019,0 hPa 0,0 mm 3,2 km/h (1 Bft) N 360 10 min 1 UV-I 471 W/m 9,7 km/h (2 Bft)
03.09.2010 17:20 19,0 C 65 % 1018,8 hPa 0,0 mm 1,6 km/h (1 Bft) N-NO 22 10 min 1 UV-I 520 W/m 8,0 km/h (2 Bft)
03.09.2010 17:30 19,1 C 68 % 1018,9 hPa 0,0 mm 3,2 km/h (1 Bft) NO 45 10 min 1 UV-I 250 W/m 9,7 km/h (2 Bft)
03.09.2010 17:40 18,2 C 70 % 1019,0 hPa 0,0 mm 3,2 km/h (1 Bft) NO 45 0 min 1 UV-I 139 W/m 11,3 km/h (2 Bft)
03.09.2010 17:50 18,0 C 72 % 1018,9 hPa 0,0 mm 1,6 km/h (1 Bft) NO 45 0 min 1 UV-I 116 W/m 9,7 km/h (2 Bft)
03.09.2010 18:00 17,9 C 72 % 1018,9 hPa 0,0 mm 1,6 km/h (1 Bft) NO 45 0 min 1 UV-I 174 W/m 6,4 km/h (2 Bft)
03.09.2010 18:10 18,1 C 71 % 1018,8 hPa 0,0 mm 1,6 km/h (1 Bft) NO 45 10 min 1 UV-I 267 W/m 6,4 km/h (2 Bft)
03.09.2010 18:20 18,2 C 70 % 1018,8 hPa 0,0 mm 1,6 km/h (1 Bft) NO 45 10 min 1 UV-I 174 W/m 6,4 km/h (2 Bft)
03.09.2010 18:30 17,9 C 72 % 1018,8 hPa 0,0 mm 1,6 km/h (1 Bft) NO 45 10 min 1 UV-I 141 W/m 4,8 km/h (1 Bft)
03.09.2010 18:40 17,6 C 73 % 1018,8 hPa 0,0 mm 1,6 km/h (1 Bft) NO 45 0 min 1 UV-I 90 W/m 4,8 km/h (1 Bft)
03.09.2010 18:50 17,3 C 73 % 1018,8 hPa 0,0 mm 1,6 km/h (1 Bft) NO 45 0 min 0 UV-I 69 W/m 6,4 km/h (2 Bft)
03.09.2010 19:00 17,1 C 74 % 1018,8 hPa 0,0 mm 0,0 km/h (0 Bft) NO 45 0 min 0 UV-I 51 W/m 3,2 km/h (1 Bft)
03.09.2010 19:10 16,9 C 75 % 1018,9 hPa 0,0 mm 0,0 km/h (0 Bft) NO 45 0 min 0 UV-I 39 W/m 3,2 km/h (1 Bft)
03.09.2010 19:20 16,8 C 75 % 1018,8 hPa 0,0 mm 0,0 km/h (0 Bft) NO 45 0 min 0 UV-I 30 W/m 3,2 km/h (1 Bft)
03.09.2010 19:30 16,6 C 76 % 1018,8 hPa 0,0 mm 0,0 km/h (0 Bft) NO 45 0 min 0 UV-I 23 W/m 1,6 km/h (1 Bft)
03.09.2010 19:40 16,4 C 77 % 1018,7 hPa 0,0 mm 0,0 km/h (0 Bft) NO 45 0 min 0 UV-I 14 W/m 3,2 km/h (1 Bft)
03.09.2010 19:50 16,2 C 77 % 1018,7 hPa 0,0 mm 0,0 km/h (0 Bft) NO 45 0 min 0 UV-I 9 W/m 3,2 km/h (1 Bft)
03.09.2010 20:00 16,1 C 78 % 1018,8 hPa 0,0 mm 0,0 km/h (0 Bft) NO 45 0 min 0 UV-I 5 W/m 1,6 km/h (1 Bft)
03.09.2010 20:10 15,9 C 79 % 1018,8 hPa 0,0 mm 0,0 km/h (0 Bft) N 0 0 min 0 UV-I 0 W/m 0,0 km/h (0 Bft)
03.09.2010 20:20 15,8 C 80 % 1018,8 hPa 0,0 mm 0,0 km/h (0 Bft) NO 45 0 min 0 UV-I 0 W/m 1,6 km/h (1 Bft)
03.09.2010 20:30 15,7 C 81 % 1018,8 hPa 0,0 mm 0,0 km/h (0 Bft) NO 45 0 min 0 UV-I 0 W/m 1,6 km/h (1 Bft)
03.09.2010 20:40 15,5 C 81 % 1018,8 hPa 0,0 mm 0,0 km/h (0 Bft) NO 45 0 min 0 UV-I 0 W/m 1,6 km/h (1 Bft)
03.09.2010 20:50 15,3 C 81 % 1018,9 hPa 0,0 mm 0,0 km/h (0 Bft) NO 45 0 min 0 UV-I 0 W/m 1,6 km/h (1 Bft)
03.09.2010 21:00 15,3 C 81 % 1018,9 hPa 0,0 mm 0,0 km/h (0 Bft) NO 45 0 min 0 UV-I 0 W/m 1,6 km/h (1 Bft)
03.09.2010 21:10 15,1 C 82 % 1019,0 hPa 0,0 mm 0,0 km/h (0 Bft) N 0 0 min 0 UV-I 0 W/m 0,0 km/h (0 Bft)
03.09.2010 21:20 15,1 C 84 % 1019,0 hPa 0,0 mm 0,0 km/h (0 Bft) NO 45 0 min 0 UV-I 0 W/m 1,6 km/h (1 Bft)
03.09.2010 21:30 14,9 C 85 % 1019,0 hPa 0,0 mm 0,0 km/h (0 Bft) N 0 0 min 0 UV-I 0 W/m 0,0 km/h (0 Bft)
03.09.2010 21:40 14,6 C 85 % 1019,0 hPa 0,0 mm 0,0 km/h (0 Bft) N 0 0 min 0 UV-I 0 W/m 0,0 km/h (0 Bft)
03.09.2010 21:50 14,4 C 86 % 1019,1 hPa 0,0 mm 0,0 km/h (0 Bft) N 0 0 min 0 UV-I 0 W/m 0,0 km/h (0 Bft)
03.09.2010 22:00 14,3 C 87 % 1019,1 hPa 0,0 mm 0,0 km/h (0 Bft) N 0 0 min 0 UV-I 0 W/m 0,0 km/h (0 Bft)
03.09.2010 22:10 14,2 C 87 % 1019,0 hPa 0,0 mm 0,0 km/h (0 Bft) N 0 0 min 0 UV-I 0 W/m 0,0 km/h (0 Bft)
03.09.2010 22:20 14,1 C 87 % 1019,0 hPa 0,0 mm 0,0 km/h (0 Bft) NO 45 0 min 0 UV-I 0 W/m 1,6 km/h (1 Bft)
03.09.2010 22:30 14,1 C 87 % 1019,0 hPa 0,0 mm 0,0 km/h (0 Bft) NO 45 0 min 0 UV-I 0 W/m 3,2 km/h (1 Bft)
03.09.2010 22:40 14,1 C 87 % 1019,0 hPa 0,0 mm 0,0 km/h (0 Bft) NO 45 0 min 0 UV-I 0 W/m 1,6 km/h (1 Bft)
03.09.2010 22:50 14,1 C 87 % 1019,0 hPa 0,0 mm 0,0 km/h (0 Bft) NO 45 0 min 0 UV-I 0 W/m 1,6 km/h (1 Bft)
03.09.2010 23:00 14,1 C 87 % 1019,1 hPa 0,0 mm 0,0 km/h (0 Bft) NO 45 0 min 0 UV-I 0 W/m 1,6 km/h (1 Bft)
03.09.2010 23:10 14,1 C 87 % 1019,1 hPa 0,0 mm 0,0 km/h (0 Bft) N 0 0 min 0 UV-I 0 W/m 0,0 km/h (0 Bft)
03.09.2010 23:20 14,1 C 88 % 1019,2 hPa 0,0 mm 0,0 km/h (0 Bft) N 0 0 min 0 UV-I 0 W/m 0,0 km/h (0 Bft)
03.09.2010 23:30 14,1 C 88 % 1019,0 hPa 0,0 mm 0,0 km/h (0 Bft) N 0 0 min 0 UV-I 0 W/m 0,0 km/h (0 Bft)
03.09.2010 23:40 14,0 C 88 % 1019,1 hPa 0,0 mm 0,0 km/h (0 Bft) N 0 0 min 0 UV-I 0 W/m 0,0 km/h (0 Bft)
03.09.2010 23:50 13,9 C 89 % 1019,1 hPa 0,0 mm 0,0 km/h (0 Bft) N 0 0 min 0 UV-I 0 W/m 0,0 km/h (0 Bft)
_ Min-Zeit 06:40 15:40 19:40 - 00:00 - - - - - 00:20
Minimum _ 12,7 C 60 % 1018,7 hPa - 0,0 km/h (0 Bft) - - - - - 0,0 km/h (0 Bft)
_ Max-Zeit 16:10 07:50 10:10 00:00 13:40 - - 10:50 13:30 14:00 16:50
Maximum _ 20,2 C 92 % 1020,9 hPa 0,0 mm 3,2 km/h
W (1 Bft)
- - 10 min 5 UV-I 758 W/m 11,3 km/h
N (2 Bft)
Durchschnitt _ 15,2 C 82 % 1019,6 hPa #0,0 mm 0,5 km/h (0 Bft) NO - #6:30 h 3 UV-I 321 W/m 2,5 km/h (1 Bft)